ブエノスアイレス/エセイサ の空港の天気 - METARとTAF

エセイサ国際空港 ( SAEZ / EZE ) - アルゼンチン ブエノスアイレス州、Ezeiza
飛行場実況気象(Metar)
観測時間05/22 22:00 ART (05/23 01:00 UTC)
風向・風速北西 2m/s
視程7000m
天気現象
なし
気温10℃
湿度71%
気圧1020hPa
METARSAEZ 230100Z 32003KT 7000 NSC 10/05 Q1020 NOSIG
過去の天気等 Google飛行場航空写真 Wunderground天気予報

過去48時間のMETAR

飛行場予報(TAF)
発表時間: 5/22 20:00 ART (5/22 23:00 UTC)
予報対象時間: 22日21時 ART ~ 23日21時 ART
風向・風速西北西 3m/s
視程10km以上
なし
TAF SAEZ 222300Z 2300/2324 30005KT CAVOK TX17/2318Z TN03/2310Z